sensor_id;sensor_type;location;lat;lon;timestamp;pressure;altitude;pressure_sealevel;temperature;humidity
56630;BME280;42502;40.732;-74.254;2023-07-13T00:00:16;100383.66;;;34.03;39.99
56630;BME280;42502;40.732;-74.254;2023-07-13T00:02:17;100377.91;;;34.03;39.87
56630;BME280;42502;40.732;-74.254;2023-07-13T00:04:19;100380.78;;;34.03;39.58
56630;BME280;42502;40.732;-74.254;2023-07-13T00:06:20;100381.56;;;34.04;39.35
56630;BME280;42502;40.732;-74.254;2023-07-13T00:08:21;100387.75;;;34.02;39.50
56630;BME280;42502;40.732;-74.254;2023-07-13T00:10:23;100379.97;;;34.03;39.26
56630;BME280;42502;40.732;-74.254;2023-07-13T00:12:32;100384.91;;;34.02;39.57
56630;BME280;42502;40.732;-74.254;2023-07-13T00:14:33;100377.91;;;34.03;39.54
56630;BME280;42502;40.732;-74.254;2023-07-13T00:16:36;100377.91;;;34.03;39.47
56630;BME280;42502;40.732;-74.254;2023-07-13T00:18:46;100371.47;;;33.99;39.66
56630;BME280;42502;40.732;-74.254;2023-07-13T00:20:47;100385.81;;;33.99;39.66
56630;BME280;42502;40.732;-74.254;2023-07-13T00:22:49;100384.09;;;34.02;39.14
56630;BME280;42502;40.732;-74.254;2023-07-13T00:24:50;100380.06;;;33.99;39.31
56630;BME280;42502;40.732;-74.254;2023-07-13T00:26:55;100386.16;;;34.01;39.21
56630;BME280;42502;40.732;-74.254;2023-07-13T00:28:56;100386.16;;;34.01;39.22
56630;BME280;42502;40.732;-74.254;2023-07-13T00:30:57;100383.28;;;34.01;39.35
56630;BME280;42502;40.732;-74.254;2023-07-13T00:32:58;100389.38;;;34.03;38.98
56630;BME280;42502;40.732;-74.254;2023-07-13T00:35:02;100379.97;;;34.03;39.16
56630;BME280;42502;40.732;-74.254;2023-07-13T00:37:06;100372.63;;;34.02;39.34
56630;BME280;42502;40.732;-74.254;2023-07-13T00:39:07;100382.03;;;34.02;38.88
56630;BME280;42502;40.732;-74.254;2023-07-13T00:41:09;100375.06;;;34.03;38.82
56630;BME280;42502;40.732;-74.254;2023-07-13T00:43:15;100378.38;;;34.02;39.15
56630;BME280;42502;40.732;-74.254;2023-07-13T00:47:20;100377.09;;;34.03;38.99
56630;BME280;42502;40.732;-74.254;2023-07-13T00:49:22;100367.69;;;34.02;38.91
56630;BME280;42502;40.732;-74.254;2023-07-13T00:51:28;100372.63;;;34.02;38.92
56630;BME280;42502;40.732;-74.254;2023-07-13T00:53:32;100368.94;;;34.01;38.84
56630;BME280;42502;40.732;-74.254;2023-07-13T00:55:35;100361.19;;;34.02;38.83
56630;BME280;42502;40.732;-74.254;2023-07-13T00:57:36;100373.44;;;34.02;38.79
56630;BME280;42502;40.732;-74.254;2023-07-13T00:59:42;100375.50;;;34.02;38.99
56630;BME280;42502;40.732;-74.254;2023-07-13T01:01:43;100371.81;;;34.01;38.85
56630;BME280;42502;40.732;-74.254;2023-07-13T01:03:44;100369.78;;;34.02;39.02
56630;BME280;42502;40.732;-74.254;2023-07-13T01:05:48;100372.72;;;33.98;38.64
56630;BME280;42502;40.732;-74.254;2023-07-13T01:07:51;100382.50;;;34.00;39.02
56630;BME280;42502;40.732;-74.254;2023-07-13T01:09:52;100368.63;;;33.99;39.06
56630;BME280;42502;40.732;-74.254;2023-07-13T01:11:53;100378.38;;;34.02;39.03
56630;BME280;42502;40.732;-74.254;2023-07-13T01:13:56;100373.88;;;34.00;39.02
56630;BME280;42502;40.732;-74.254;2023-07-13T01:16:05;100378.00;;;33.99;39.33
56630;BME280;42502;40.732;-74.254;2023-07-13T01:18:16;100374.69;;;34.01;39.12
56630;BME280;42502;40.732;-74.254;2023-07-13T01:20:20;100373.88;;;34.00;39.00
56630;BME280;42502;40.732;-74.254;2023-07-13T01:22:21;100376.75;;;34.00;39.00
56630;BME280;42502;40.732;-74.254;2023-07-13T01:24:26;100376.75;;;34.00;38.97
56630;BME280;42502;40.732;-74.254;2023-07-13T01:26:27;100383.28;;;34.01;38.87
56630;BME280;42502;40.732;-74.254;2023-07-13T01:28:28;100380.88;;;33.99;38.72
56630;BME280;42502;40.732;-74.254;2023-07-13T01:30:29;100388.69;;;33.99;38.56
56630;BME280;42502;40.732;-74.254;2023-07-13T01:32:30;100386.25;;;33.97;38.99
56630;BME280;42502;40.732;-74.254;2023-07-13T01:34:33;100387.88;;;33.98;39.17
56630;BME280;42502;40.732;-74.254;2023-07-13T01:36:34;100385.81;;;33.99;38.80
56630;BME280;42502;40.732;-74.254;2023-07-13T01:38:36;100386.72;;;33.96;38.90
56630;BME280;42502;40.732;-74.254;2023-07-13T01:40:38;100385.81;;;33.99;38.98
56630;BME280;42502;40.732;-74.254;2023-07-13T01:42:39;100387.88;;;33.98;39.03
56630;BME280;42502;40.732;-74.254;2023-07-13T01:44:40;100389.91;;;33.98;38.89
56630;BME280;42502;40.732;-74.254;2023-07-13T01:46:41;100387.06;;;33.98;38.82
56630;BME280;42502;40.732;-74.254;2023-07-13T01:48:41;100389.91;;;33.98;39.06
56630;BME280;42502;40.732;-74.254;2023-07-13T01:50:42;100389.91;;;33.98;38.78
56630;BME280;42502;40.732;-74.254;2023-07-13T01:52:43;100385.47;;;33.97;38.55
56630;BME280;42502;40.732;-74.254;2023-07-13T01:54:44;100395.66;;;33.98;38.57
56630;BME280;42502;40.732;-74.254;2023-07-13T01:56:45;100387.06;;;33.98;38.93
56630;BME280;42502;40.732;-74.254;2023-07-13T01:58:46;100389.13;;;33.97;38.80
56630;BME280;42502;40.732;-74.254;2023-07-13T02:00:49;100383.41;;;33.97;38.87
56630;BME280;42502;40.732;-74.254;2023-07-13T02:02:50;100381.78;;;33.96;38.86
56630;BME280;42502;40.732;-74.254;2023-07-13T02:04:51;100383.41;;;33.97;38.86
56630;BME280;42502;40.732;-74.254;2023-07-13T02:06:52;100394.84;;;33.97;38.95
56630;BME280;42502;40.732;-74.254;2023-07-13T02:08:53;100383.41;;;33.97;38.82
56630;BME280;42502;40.732;-74.254;2023-07-13T02:10:54;100378.47;;;33.98;38.76
56630;BME280;42502;40.732;-74.254;2023-07-13T02:12:54;100378.47;;;33.98;38.73
56630;BME280;42502;40.732;-74.254;2023-07-13T02:14:55;100379.28;;;33.98;38.46
56630;BME280;42502;40.732;-74.254;2023-07-13T02:16:56;100382.59;;;33.97;38.73
56630;BME280;42502;40.732;-74.254;2023-07-13T02:18:57;100377.34;;;33.95;38.51
56630;BME280;42502;40.732;-74.254;2023-07-13T02:20:58;100380.19;;;33.95;38.50
56630;BME280;42502;40.732;-74.254;2023-07-13T02:22:59;100379.38;;;33.95;38.82
56630;BME280;42502;40.732;-74.254;2023-07-13T02:25:03;100387.50;;;33.96;38.63
56630;BME280;42502;40.732;-74.254;2023-07-13T02:27:05;100376.06;;;33.96;38.65
56630;BME280;42502;40.732;-74.254;2023-07-13T02:29:06;100381.00;;;33.96;38.73
56630;BME280;42502;40.732;-74.254;2023-07-13T02:31:10;100386.72;;;33.96;39.07
56630;BME280;42502;40.732;-74.254;2023-07-13T02:33:11;100387.97;;;33.95;39.01
56630;BME280;42502;40.732;-74.254;2023-07-13T02:35:14;100377.34;;;33.95;39.18
56630;BME280;42502;40.732;-74.254;2023-07-13T02:37:15;100385.09;;;33.95;39.06
56630;BME280;42502;40.732;-74.254;2023-07-13T02:39:16;100385.94;;;33.95;38.79
56630;BME280;42502;40.732;-74.254;2023-07-13T02:41:17;100376.50;;;33.95;38.68
56630;BME280;42502;40.732;-74.254;2023-07-13T02:43:18;100375.25;;;33.96;38.92
56630;BME280;42502;40.732;-74.254;2023-07-13T02:45:19;100381.44;;;33.94;38.95
56630;BME280;42502;40.732;-74.254;2023-07-13T02:47:19;100382.25;;;33.95;38.81
56630;BME280;42502;40.732;-74.254;2023-07-13T02:49:20;100380.66;;;33.94;38.72
56630;BME280;42502;40.732;-74.254;2023-07-13T02:51:21;100377.78;;;33.94;39.13
56630;BME280;42502;40.732;-74.254;2023-07-13T02:53:22;100383.97;;;33.92;39.06
56630;BME280;42502;40.732;-74.254;2023-07-13T02:55:23;100376.97;;;33.93;38.86
56630;BME280;42502;40.732;-74.254;2023-07-13T02:57:24;100380.28;;;33.92;39.03
56630;BME280;42502;40.732;-74.254;2023-07-13T02:59:25;100387.63;;;33.93;38.70
56630;BME280;42502;40.732;-74.254;2023-07-13T03:01:26;100379.50;;;33.91;38.76
56630;BME280;42502;40.732;-74.254;2023-07-13T03:03:26;100386.00;;;33.92;38.87
56630;BME280;42502;40.732;-74.254;2023-07-13T03:05:27;100382.34;;;33.91;38.77
56630;BME280;42502;40.732;-74.254;2023-07-13T03:07:30;100372.59;;;33.89;38.58
56630;BME280;42502;40.732;-74.254;2023-07-13T03:09:34;100383.59;;;33.90;38.88
56630;BME280;42502;40.732;-74.254;2023-07-13T03:11:35;100379.63;;;33.88;38.49
56630;BME280;42502;40.732;-74.254;2023-07-13T03:13:37;100381.19;;;33.89;38.89
56630;BME280;42502;40.732;-74.254;2023-07-13T03:15:38;100381.19;;;33.89;38.85
56630;BME280;42502;40.732;-74.254;2023-07-13T03:17:39;100378.00;;;33.87;38.40
56630;BME280;42502;40.732;-74.254;2023-07-13T03:19:40;100380.84;;;33.87;38.18
56630;BME280;42502;40.732;-74.254;2023-07-13T03:21:44;100369.06;;;33.85;38.33
56630;BME280;42502;40.732;-74.254;2023-07-13T03:23:44;100377.66;;;33.85;38.27
56630;BME280;42502;40.732;-74.254;2023-07-13T03:25:46;100379.69;;;33.84;38.07
56630;BME280;42502;40.732;-74.254;2023-07-13T03:27:47;100373.19;;;33.84;38.27
56630;BME280;42502;40.732;-74.254;2023-07-13T03:29:48;100377.28;;;33.82;38.21
56630;BME280;42502;40.732;-74.254;2023-07-13T03:31:49;100383.03;;;33.82;37.89
56630;BME280;42502;40.732;-74.254;2023-07-13T03:33:52;100383.03;;;33.82;38.07
56630;BME280;42502;40.732;-74.254;2023-07-13T03:35:53;100375.34;;;33.79;37.97
56630;BME280;42502;40.732;-74.254;2023-07-13T03:37:54;100372.47;;;33.79;38.20
56630;BME280;42502;40.732;-74.254;2023-07-13T03:39:55;100376.63;;;33.78;37.71
56630;BME280;42502;40.732;-74.254;2023-07-13T03:41:56;100374.53;;;33.79;37.82
56630;BME280;42502;40.732;-74.254;2023-07-13T03:43:57;100372.94;;;33.78;37.63
56630;BME280;42502;40.732;-74.254;2023-07-13T03:45:58;100368.44;;;33.77;37.86
56630;BME280;42502;40.732;-74.254;2023-07-13T03:47:59;100370.53;;;33.76;38.09
56630;BME280;42502;40.732;-74.254;2023-07-13T03:49:59;100367.31;;;33.74;37.56
56630;BME280;42502;40.732;-74.254;2023-07-13T03:52:00;100373.03;;;33.74;37.50
56630;BME280;42502;40.732;-74.254;2023-07-13T03:54:02;100370.63;;;33.73;37.80
56630;BME280;42502;40.732;-74.254;2023-07-13T03:56:05;100372.69;;;33.72;37.63
56630;BME280;42502;40.732;-74.254;2023-07-13T04:00:29;100373.09;;;33.71;37.71
56630;BME280;42502;40.732;-74.254;2023-07-13T04:02:30;100375.16;;;33.70;37.43
56630;BME280;42502;40.732;-74.254;2023-07-13T04:04:31;100367.81;;;33.69;37.55
56630;BME280;42502;40.732;-74.254;2023-07-13T04:06:32;100362.56;;;33.68;37.65
56630;BME280;42502;40.732;-74.254;2023-07-13T04:08:35;100370.34;;;33.67;37.19
56630;BME280;42502;40.732;-74.254;2023-07-13T04:10:39;100356.47;;;33.65;37.52
56630;BME280;42502;40.732;-74.254;2023-07-13T04:12:40;100353.63;;;33.65;37.13
56630;BME280;42502;40.732;-74.254;2023-07-13T04:14:41;100356.16;;;33.63;37.28
56630;BME280;42502;40.732;-74.254;2023-07-13T04:16:45;100358.19;;;33.63;37.09
56630;BME280;42502;40.732;-74.254;2023-07-13T04:18:49;100360.72;;;33.61;37.11
56630;BME280;42502;40.732;-74.254;2023-07-13T04:20:51;100354.97;;;33.61;37.16
56630;BME280;42502;40.732;-74.254;2023-07-13T04:22:52;100355.44;;;33.59;36.93
56630;BME280;42502;40.732;-74.254;2023-07-13T04:24:53;100354.28;;;33.57;37.20
56630;BME280;42502;40.732;-74.254;2023-07-13T04:26:54;100360.81;;;33.57;36.80
56630;BME280;42502;40.732;-74.254;2023-07-13T04:28:59;100366.56;;;33.57;36.89
56630;BME280;42502;40.732;-74.254;2023-07-13T04:31:00;100368.59;;;33.57;37.02
56630;BME280;42502;40.732;-74.254;2023-07-13T04:33:01;100363.31;;;33.55;37.08
56630;BME280;42502;40.732;-74.254;2023-07-13T04:35:02;100367.47;;;33.54;37.22
56630;BME280;42502;40.732;-74.254;2023-07-13T04:37:04;100367.09;;;33.52;36.77
56630;BME280;42502;40.732;-74.254;2023-07-13T04:39:05;100364.22;;;33.52;36.96
56630;BME280;42502;40.732;-74.254;2023-07-13T04:41:08;100364.34;;;33.49;36.81
56630;BME280;42502;40.732;-74.254;2023-07-13T04:43:09;100364.69;;;33.51;36.89
56630;BME280;42502;40.732;-74.254;2023-07-13T04:45:10;100360.31;;;33.46;37.11
56630;BME280;42502;40.732;-74.254;2023-07-13T04:47:13;100359.88;;;33.47;36.69
56630;BME280;42502;40.732;-74.254;2023-07-13T04:49:17;100355.38;;;33.46;37.10
56630;BME280;42502;40.732;-74.254;2023-07-13T04:51:18;100366.50;;;33.44;36.82
56630;BME280;42502;40.732;-74.254;2023-07-13T04:53:19;100356.66;;;33.45;36.56
56630;BME280;42502;40.732;-74.254;2023-07-13T04:55:20;100364.41;;;33.45;36.75
56630;BME280;42502;40.732;-74.254;2023-07-13T04:57:26;100357.13;;;33.44;36.54
56630;BME280;42502;40.732;-74.254;2023-07-13T04:59:27;100360.44;;;33.42;36.96
56630;BME280;42502;40.732;-74.254;2023-07-13T05:01:28;100355.94;;;33.41;36.63
56630;BME280;42502;40.732;-74.254;2023-07-13T05:03:29;100357.66;;;33.39;36.87
56630;BME280;42502;40.732;-74.254;2023-07-13T05:05:31;100360.06;;;33.40;36.49
56630;BME280;42502;40.732;-74.254;2023-07-13T05:07:31;100358.47;;;33.39;36.71
56630;BME280;42502;40.732;-74.254;2023-07-13T05:09:33;100356.06;;;33.38;36.48
56630;BME280;42502;40.732;-74.254;2023-07-13T05:11:37;100348.72;;;33.37;36.42
56630;BME280;42502;40.732;-74.254;2023-07-13T05:13:40;100343.44;;;33.35;36.40
56630;BME280;42502;40.732;-74.254;2023-07-13T05:15:41;100346.31;;;33.35;36.83
56630;BME280;42502;40.732;-74.254;2023-07-13T05:17:42;100350.78;;;33.36;36.41
56630;BME280;42502;40.732;-74.254;2023-07-13T05:19:43;100349.63;;;33.34;36.50
56630;BME280;42502;40.732;-74.254;2023-07-13T05:21:43;100345.97;;;33.33;36.66
56630;BME280;42502;40.732;-74.254;2023-07-13T05:23:44;100343.91;;;33.34;36.61
56630;BME280;42502;40.732;-74.254;2023-07-13T05:25:45;100335.75;;;33.32;36.59
56630;BME280;42502;40.732;-74.254;2023-07-13T05:27:46;100329.25;;;33.32;36.62
56630;BME280;42502;40.732;-74.254;2023-07-13T05:29:50;100325.22;;;33.29;36.93
56630;BME280;42502;40.732;-74.254;2023-07-13T05:31:51;100331.28;;;33.31;36.76
56630;BME280;42502;40.732;-74.254;2023-07-13T05:33:52;100312.53;;;33.30;36.69
56630;BME280;42502;40.732;-74.254;2023-07-13T05:35:53;100321.91;;;33.31;36.86
56630;BME280;42502;40.732;-74.254;2023-07-13T05:37:54;100305.63;;;33.27;36.86
56630;BME280;42502;40.732;-74.254;2023-07-13T05:39:54;100310.13;;;33.28;36.83
56630;BME280;42502;40.732;-74.254;2023-07-13T05:41:55;100306.44;;;33.28;36.51
56630;BME280;42502;40.732;-74.254;2023-07-13T05:43:56;100308.50;;;33.27;36.61
56630;BME280;42502;40.732;-74.254;2023-07-13T05:45:57;100313.44;;;33.27;36.75
56630;BME280;42502;40.732;-74.254;2023-07-13T05:47:58;100314.22;;;33.27;36.83
56630;BME280;42502;40.732;-74.254;2023-07-13T05:49:59;100300.38;;;33.26;36.50
56630;BME280;42502;40.732;-74.254;2023-07-13T05:51:59;100302.44;;;33.25;36.41
56630;BME280;42502;40.732;-74.254;2023-07-13T05:54:00;100303.22;;;33.26;36.71
56630;BME280;42502;40.732;-74.254;2023-07-13T05:56:01;100295.53;;;33.23;36.69
56630;BME280;42502;40.732;-74.254;2023-07-13T05:58:02;100289.38;;;33.24;36.54
56630;BME280;42502;40.732;-74.254;2023-07-13T06:00:03;100297.16;;;33.24;36.83
56630;BME280;42502;40.732;-74.254;2023-07-13T06:02:10;100291.06;;;33.22;36.59
56630;BME280;42502;40.732;-74.254;2023-07-13T06:04:11;100286.97;;;33.23;36.61
56630;BME280;42502;40.732;-74.254;2023-07-13T06:06:12;100282.47;;;33.22;36.95
56630;BME280;42502;40.732;-74.254;2023-07-13T06:08:13;100279.63;;;33.22;36.82
56630;BME280;42502;40.732;-74.254;2023-07-13T06:10:14;100276.75;;;33.22;37.03
56630;BME280;42502;40.732;-74.254;2023-07-13T06:12:14;100280.91;;;33.21;36.41
56630;BME280;42502;40.732;-74.254;2023-07-13T06:14:15;100282.13;;;33.20;36.60
56630;BME280;42502;40.732;-74.254;2023-07-13T06:16:16;100275.63;;;33.19;36.49
56630;BME280;42502;40.732;-74.254;2023-07-13T06:18:17;100271.91;;;33.19;36.78
56630;BME280;42502;40.732;-74.254;2023-07-13T06:20:18;100280.50;;;33.19;36.66
56630;BME280;42502;40.732;-74.254;2023-07-13T06:22:19;100274.44;;;33.17;36.99
56630;BME280;42502;40.732;-74.254;2023-07-13T06:24:20;100280.50;;;33.19;36.50
56630;BME280;42502;40.732;-74.254;2023-07-13T06:26:21;100276.03;;;33.18;36.84
56630;BME280;42502;40.732;-74.254;2023-07-13T06:28:22;100280.16;;;33.17;37.03
56630;BME280;42502;40.732;-74.254;2023-07-13T06:30:23;100284.25;;;33.16;37.10
56630;BME280;42502;40.732;-74.254;2023-07-13T06:32:24;100284.25;;;33.16;37.06
56630;BME280;42502;40.732;-74.254;2023-07-13T06:34:27;100287.56;;;33.14;36.57
56630;BME280;42502;40.732;-74.254;2023-07-13T06:36:28;100298.22;;;33.14;37.07
56630;BME280;42502;40.732;-74.254;2023-07-13T06:38:29;100295.00;;;33.11;36.80
56630;BME280;42502;40.732;-74.254;2023-07-13T06:40:30;100291.69;;;33.13;36.86
56630;BME280;42502;40.732;-74.254;2023-07-13T06:42:31;100282.31;;;33.12;36.95
56630;BME280;42502;40.732;-74.254;2023-07-13T06:44:32;100295.00;;;33.11;36.70
56630;BME280;42502;40.732;-74.254;2023-07-13T06:46:42;100278.72;;;33.08;36.78
56630;BME280;42502;40.732;-74.254;2023-07-13T06:48:45;100274.16;;;33.11;36.71
56630;BME280;42502;40.732;-74.254;2023-07-13T06:50:50;100275.88;;;33.08;36.64
56630;BME280;42502;40.732;-74.254;2023-07-13T06:52:51;100275.88;;;33.08;36.90
56630;BME280;42502;40.732;-74.254;2023-07-13T06:54:53;100281.06;;;33.14;36.59
56630;BME280;42502;40.732;-74.254;2023-07-13T06:56:53;100278.66;;;33.12;36.75
56630;BME280;42502;40.732;-74.254;2023-07-13T06:58:54;100282.03;;;33.07;36.67
56630;BME280;42502;40.732;-74.254;2023-07-13T07:00:55;100277.16;;;33.07;36.47
56630;BME280;42502;40.732;-74.254;2023-07-13T07:02:56;100275.53;;;33.06;37.02
56630;BME280;42502;40.732;-74.254;2023-07-13T07:04:57;100256.16;;;32.98;36.93
56630;BME280;42502;40.732;-74.254;2023-07-13T07:06:58;100278.84;;;33.05;36.85
56630;BME280;42502;40.732;-74.254;2023-07-13T07:08:59;100272.31;;;33.04;36.83
56630;BME280;42502;40.732;-74.254;2023-07-13T07:11:02;100275.63;;;33.03;37.00
56630;BME280;42502;40.732;-74.254;2023-07-13T07:13:03;100276.09;;;33.01;37.18
56630;BME280;42502;40.732;-74.254;2023-07-13T07:15:05;100274.81;;;33.02;36.55
56630;BME280;42502;40.732;-74.254;2023-07-13T07:17:06;100276.09;;;33.01;36.91
56630;BME280;42502;40.732;-74.254;2023-07-13T07:19:06;100272.41;;;33.01;36.61
56630;BME280;42502;40.732;-74.254;2023-07-13T07:21:07;100277.34;;;33.00;37.08
56630;BME280;42502;40.732;-74.254;2023-07-13T07:23:08;100274.94;;;32.99;36.99
56630;BME280;42502;40.732;-74.254;2023-07-13T07:25:11;100287.63;;;32.98;36.62
56630;BME280;42502;40.732;-74.254;2023-07-13T07:27:12;100283.16;;;32.97;36.87
56630;BME280;42502;40.732;-74.254;2023-07-13T07:29:13;100277.44;;;32.97;36.82
56630;BME280;42502;40.732;-74.254;2023-07-13T07:31:14;100281.56;;;32.96;37.04
56630;BME280;42502;40.732;-74.254;2023-07-13T07:33:17;100283.25;;;32.93;36.66
56630;BME280;42502;40.732;-74.254;2023-07-13T07:35:18;100275.38;;;32.97;36.68
56630;BME280;42502;40.732;-74.254;2023-07-13T07:37:19;100278.69;;;32.96;37.07
56630;BME280;42502;40.732;-74.254;2023-07-13T07:39:20;100287.72;;;32.94;37.06
56630;BME280;42502;40.732;-74.254;2023-07-13T07:41:21;100283.25;;;32.93;36.80
56630;BME280;42502;40.732;-74.254;2023-07-13T07:43:22;100283.25;;;32.93;37.07
56630;BME280;42502;40.732;-74.254;2023-07-13T07:45:23;100287.38;;;32.92;36.70
56630;BME280;42502;40.732;-74.254;2023-07-13T07:47:23;100287.38;;;32.92;36.58
56630;BME280;42502;40.732;-74.254;2023-07-13T07:49:34;100287.00;;;32.90;37.23
56630;BME280;42502;40.732;-74.254;2023-07-13T07:51:35;100293.09;;;32.92;37.15
56630;BME280;42502;40.732;-74.254;2023-07-13T07:53:36;100293.56;;;32.90;37.15
56630;BME280;42502;40.732;-74.254;2023-07-13T07:55:37;100289.88;;;32.90;37.22
56630;BME280;42502;40.732;-74.254;2023-07-13T07:57:37;100305.44;;;32.89;37.06
56630;BME280;42502;40.732;-74.254;2023-07-13T07:59:38;100293.63;;;32.87;36.54
56630;BME280;42502;40.732;-74.254;2023-07-13T08:01:39;100303.03;;;32.87;37.10
56630;BME280;42502;40.732;-74.254;2023-07-13T08:03:45;100303.03;;;32.87;36.85
56630;BME280;42502;40.732;-74.254;2023-07-13T08:05:55;100298.56;;;32.86;37.06
56630;BME280;42502;40.732;-74.254;2023-07-13T08:07:56;100294.91;;;32.86;37.25
56630;BME280;42502;40.732;-74.254;2023-07-13T08:09:56;100292.47;;;32.84;36.61
56630;BME280;42502;40.732;-74.254;2023-07-13T08:11:57;100299.00;;;32.85;36.95
56630;BME280;42502;40.732;-74.254;2023-07-13T08:13:58;100296.59;;;32.83;36.84
56630;BME280;42502;40.732;-74.254;2023-07-13T08:15:59;100294.97;;;32.82;37.12
56630;BME280;42502;40.732;-74.254;2023-07-13T08:18:04;100294.19;;;32.82;36.81
56630;BME280;42502;40.732;-74.254;2023-07-13T08:20:05;100292.13;;;32.82;36.83
56630;BME280;42502;40.732;-74.254;2023-07-13T08:22:06;100303.22;;;32.80;37.12
56630;BME280;42502;40.732;-74.254;2023-07-13T08:24:06;100308.13;;;32.80;37.12
56630;BME280;42502;40.732;-74.254;2023-07-13T08:26:08;100308.13;;;32.80;36.82
56630;BME280;42502;40.732;-74.254;2023-07-13T08:28:09;100311.44;;;32.78;36.86
56630;BME280;42502;40.732;-74.254;2023-07-13T08:30:10;100309.84;;;32.77;36.95
56630;BME280;42502;40.732;-74.254;2023-07-13T08:32:11;100310.63;;;32.78;37.16
56630;BME280;42502;40.732;-74.254;2023-07-13T08:34:14;100308.22;;;32.76;37.08
56630;BME280;42502;40.732;-74.254;2023-07-13T08:36:18;100307.44;;;32.75;36.89
56630;BME280;42502;40.732;-74.254;2023-07-13T08:38:19;100315.19;;;32.75;36.80
56630;BME280;42502;40.732;-74.254;2023-07-13T08:40:24;100315.28;;;32.71;37.20
56630;BME280;42502;40.732;-74.254;2023-07-13T08:42:34;100317.81;;;32.69;36.96
56630;BME280;42502;40.732;-74.254;2023-07-13T08:46:54;100308.06;;;32.67;37.03
56630;BME280;42502;40.732;-74.254;2023-07-13T08:49:10;100311.72;;;32.67;37.21
56630;BME280;42502;40.732;-74.254;2023-07-13T08:51:26;100317.44;;;32.67;37.20
56630;BME280;42502;40.732;-74.254;2023-07-13T08:53:36;100308.06;;;32.67;36.81
56630;BME280;42502;40.732;-74.254;2023-07-13T08:55:39;100314.13;;;32.69;37.27
56630;BME280;42502;40.732;-74.254;2023-07-13T08:57:45;100303.59;;;32.66;37.34
56630;BME280;42502;40.732;-74.254;2023-07-13T08:59:47;100306.06;;;32.64;37.13
56630;BME280;42502;40.732;-74.254;2023-07-13T09:04:32;100323.31;;;32.60;37.23
56630;BME280;42502;40.732;-74.254;2023-07-13T09:06:42;100324.56;;;32.59;37.02
56630;BME280;42502;40.732;-74.254;2023-07-13T09:08:56;100319.66;;;32.59;36.97
56630;BME280;42502;40.732;-74.254;2023-07-13T09:15:38;100324.22;;;32.57;36.88
56630;BME280;42502;40.732;-74.254;2023-07-13T09:17:49;100326.34;;;32.53;36.99
56630;BME280;42502;40.732;-74.254;2023-07-13T09:19:58;100325.09;;;32.54;36.90
56630;BME280;42502;40.732;-74.254;2023-07-13T09:22:02;100316.97;;;32.52;37.03
56630;BME280;42502;40.732;-74.254;2023-07-13T09:24:51;100326.44;;;32.49;37.50
56630;BME280;42502;40.732;-74.254;2023-07-13T09:26:54;100323.50;;;32.53;36.80
56630;BME280;42502;40.732;-74.254;2023-07-13T09:29:13;100326.09;;;32.47;37.08
56630;BME280;42502;40.732;-74.254;2023-07-13T09:31:31;100328.50;;;32.49;36.95
56630;BME280;42502;40.732;-74.254;2023-07-13T09:33:36;100328.50;;;32.49;36.98
56630;BME280;42502;40.732;-74.254;2023-07-13T09:35:37;100334.22;;;32.49;37.04
56630;BME280;42502;40.732;-74.254;2023-07-13T09:37:38;100336.72;;;32.47;37.61
56630;BME280;42502;40.732;-74.254;2023-07-13T09:39:42;100333.03;;;32.46;37.43
56630;BME280;42502;40.732;-74.254;2023-07-13T09:44:13;100329.03;;;32.44;36.92
56630;BME280;42502;40.732;-74.254;2023-07-13T09:46:23;100324.22;;;32.40;37.58
56630;BME280;42502;40.732;-74.254;2023-07-13T09:48:24;100326.63;;;32.42;37.03
56630;BME280;42502;40.732;-74.254;2023-07-13T09:50:25;100331.53;;;32.41;37.01
56630;BME280;42502;40.732;-74.254;2023-07-13T09:52:27;100334.81;;;32.40;37.54
56630;BME280;42502;40.732;-74.254;2023-07-13T09:54:28;100331.16;;;32.39;37.23
56630;BME280;42502;40.732;-74.254;2023-07-13T09:56:32;100330.38;;;32.39;37.51
56630;BME280;42502;40.732;-74.254;2023-07-13T09:58:35;100331.16;;;32.39;37.62
56630;BME280;42502;40.732;-74.254;2023-07-13T10:00:36;100333.25;;;32.39;36.90
56630;BME280;42502;40.732;-74.254;2023-07-13T10:02:37;100336.53;;;32.37;37.33
56630;BME280;42502;40.732;-74.254;2023-07-13T10:04:40;100339.41;;;32.37;37.43
56630;BME280;42502;40.732;-74.254;2023-07-13T10:06:41;100343.50;;;32.36;37.18
56630;BME280;42502;40.732;-74.254;2023-07-13T10:08:45;100334.94;;;32.36;37.53
56630;BME280;42502;40.732;-74.254;2023-07-13T10:10:46;100340.63;;;32.36;37.06
56630;BME280;42502;40.732;-74.254;2023-07-13T10:12:52;100341.88;;;32.35;36.94
56630;BME280;42502;40.732;-74.254;2023-07-13T10:14:58;100348.88;;;32.34;37.15
56630;BME280;42502;40.732;-74.254;2023-07-13T10:17:01;100337.88;;;32.33;37.17
56630;BME280;42502;40.732;-74.254;2023-07-13T10:19:31;100342.78;;;32.32;37.30
56630;BME280;42502;40.732;-74.254;2023-07-13T10:21:38;100351.34;;;32.32;37.49
56630;BME280;42502;40.732;-74.254;2023-07-13T10:23:40;100353.41;;;32.32;36.87
56630;BME280;42502;40.732;-74.254;2023-07-13T10:25:43;100345.28;;;32.30;37.37
56630;BME280;42502;40.732;-74.254;2023-07-13T10:27:48;100343.66;;;32.29;37.32
56630;BME280;42502;40.732;-74.254;2023-07-13T10:30:18;100345.38;;;32.27;37.21
56630;BME280;42502;40.732;-74.254;2023-07-13T10:32:22;100346.16;;;32.27;37.16
56630;BME280;42502;40.732;-74.254;2023-07-13T10:34:24;100341.34;;;32.24;37.55
56630;BME280;42502;40.732;-74.254;2023-07-13T10:38:32;100341.69;;;32.26;37.29
56630;BME280;42502;40.732;-74.254;2023-07-13T10:40:55;100340.56;;;32.23;37.37
56630;BME280;42502;40.732;-74.254;2023-07-13T10:42:59;100342.59;;;32.23;37.20